createdAt,value
2022-10-30T00:00:26.090Z,27.03
2022-10-30T00:02:58.945Z,27.40
2022-10-30T00:05:31.763Z,29.93
2022-10-30T00:08:04.277Z,29.43
2022-10-30T00:10:37.062Z,27.43
2022-10-30T00:13:10.205Z,27.97
2022-10-30T00:15:48.611Z,25.40
2022-10-30T00:18:21.534Z,25.40
2022-10-30T00:20:54.328Z,29.17
2022-10-30T00:23:27.074Z,24.63
2022-10-30T00:26:02.944Z,26.70
2022-10-30T00:28:35.828Z,26.33
2022-10-30T00:31:12.898Z,32.33
2022-10-30T00:33:49.897Z,29.93
2022-10-30T00:36:22.986Z,33.57
2022-10-30T00:38:58.601Z,31.67
2022-10-30T00:41:31.438Z,34.77
2022-10-30T00:44:19.654Z,30.27
2022-10-30T00:47:04.359Z,34.27
2022-10-30T00:49:39.694Z,31.30
2022-10-30T00:52:12.536Z,34.33
2022-10-30T00:54:45.204Z,29.17
2022-10-30T00:57:19.208Z,33.87
2022-10-30T00:59:52.283Z,30.47
2022-10-30T01:02:29.532Z,31.47
2022-10-30T01:05:02.646Z,28.77
2022-10-30T01:07:37.716Z,31.07
2022-10-30T01:10:11.235Z,35.40
2022-10-30T01:12:44.963Z,29.90
2022-10-30T01:15:18.323Z,31.43
2022-10-30T01:18:23.798Z,28.10
2022-10-30T01:21:07.729Z,30.67
2022-10-30T01:23:45.673Z,34.50
2022-10-30T01:26:21.898Z,33.13
2022-10-30T01:29:03.912Z,29.27
2022-10-30T01:31:42.182Z,30.10
2022-10-30T01:34:19.247Z,33.07
2022-10-30T01:36:58.209Z,34.07
2022-10-30T01:39:33.949Z,35.67
2022-10-30T01:42:09.940Z,33.40
2022-10-30T01:44:43.382Z,33.47
2022-10-30T01:47:24.993Z,35.40
2022-10-30T01:50:04.188Z,39.53
2022-10-30T01:52:41.595Z,36.00
2022-10-30T01:55:19.679Z,32.27
2022-10-30T01:57:55.637Z,32.00
2022-10-30T02:00:28.438Z,31.87
2022-10-30T02:03:01.549Z,29.33
2022-10-30T02:05:38.445Z,28.57
2022-10-30T02:08:12.391Z,32.10
2022-10-30T02:10:46.063Z,30.43
2022-10-30T02:13:18.631Z,31.20
2022-10-30T02:15:51.703Z,35.10
2022-10-30T02:18:25.017Z,30.00
2022-10-30T02:20:58.993Z,27.17
2022-10-30T02:23:32.973Z,31.80
2022-10-30T02:26:05.826Z,29.07
2022-10-30T02:28:38.463Z,32.93
2022-10-30T02:31:11.039Z,27.37
2022-10-30T02:33:45.173Z,35.97
2022-10-30T02:36:19.691Z,35.43
2022-10-30T02:38:52.258Z,31.43
2022-10-30T02:41:25.120Z,31.20
2022-10-30T02:43:57.730Z,30.60
2022-10-30T02:46:30.492Z,33.17
2022-10-30T02:49:03.125Z,32.90
2022-10-30T02:51:37.085Z,29.70
2022-10-30T02:54:09.949Z,33.77
2022-10-30T02:56:46.229Z,29.43
2022-10-30T02:59:19.460Z,39.57
2022-10-30T03:01:52.129Z,33.40
2022-10-30T03:04:24.860Z,31.10
2022-10-30T03:06:59.520Z,35.80
2022-10-30T03:09:32.328Z,28.80
2022-10-30T03:12:07.250Z,28.03
2022-10-30T03:14:40.104Z,30.93
2022-10-30T03:17:15.037Z,32.77
2022-10-30T03:19:47.726Z,26.37
2022-10-30T03:22:21.755Z,29.87
2022-10-30T03:25:00.247Z,27.43
2022-10-30T03:27:32.852Z,27.63
2022-10-30T03:30:05.798Z,26.17
2022-10-30T03:32:38.272Z,28.57
2022-10-30T03:35:10.888Z,29.33
2022-10-30T03:37:46.800Z,27.33
2022-10-30T03:40:19.507Z,25.10
2022-10-30T03:42:52.066Z,27.03
2022-10-30T03:45:27.049Z,26.27
2022-10-30T03:48:00.083Z,24.67
2022-10-30T03:50:34.906Z,27.60
2022-10-30T03:53:08.783Z,29.73
2022-10-30T03:55:41.701Z,28.93
2022-10-30T03:58:14.306Z,29.33
2022-10-30T04:00:46.954Z,23.87
2022-10-30T04:03:19.563Z,25.83
2022-10-30T04:05:53.949Z,25.93
2022-10-30T04:08:27.895Z,25.90
2022-10-30T04:11:06.448Z,28.17
2022-10-30T04:13:39.097Z,29.33
2022-10-30T04:16:11.831Z,27.27
2022-10-30T04:18:44.660Z,26.50
2022-10-30T04:21:17.275Z,25.17
2022-10-30T04:23:53.983Z,27.97
2022-10-30T04:26:26.701Z,26.57
2022-10-30T04:28:59.604Z,28.03
2022-10-30T04:31:35.091Z,22.10
2022-10-30T04:34:07.869Z,23.23
2022-10-30T04:36:42.772Z,25.23
2022-10-30T04:39:18.014Z,19.90
2022-10-30T04:41:50.684Z,23.27
2022-10-30T04:44:23.347Z,30.97
2022-10-30T04:46:55.907Z,23.57
2022-10-30T04:49:30.675Z,28.90
2022-10-30T04:52:03.335Z,24.60
2022-10-30T04:54:37.235Z,22.93
2022-10-30T04:57:13.815Z,23.17
2022-10-30T04:59:46.713Z,25.03
2022-10-30T05:02:20.538Z,26.03
2022-10-30T05:04:53.252Z,22.20
2022-10-30T05:07:25.763Z,20.97
2022-10-30T05:10:02.156Z,25.97
2022-10-30T05:12:35.147Z,26.67
2022-10-30T05:15:26.150Z,28.37
2022-10-30T05:17:59.045Z,26.80
2022-10-30T05:20:31.888Z,25.63
2022-10-30T05:23:04.623Z,23.93
2022-10-30T05:25:46.994Z,20.53
2022-10-30T05:28:21.555Z,26.77
2022-10-30T05:30:54.639Z,23.90
2022-10-30T05:33:27.214Z,26.30
2022-10-30T05:35:59.799Z,22.30
2022-10-30T05:38:34.622Z,20.73
2022-10-30T05:41:11.093Z,21.87
2022-10-30T05:43:43.720Z,21.93
2022-10-30T05:46:21.227Z,21.57
2022-10-30T05:48:53.809Z,23.57
2022-10-30T05:51:26.430Z,22.03
2022-10-30T05:53:59.031Z,22.27
2022-10-30T05:56:32.929Z,19.77
2022-10-30T05:59:05.450Z,17.60
2022-10-30T06:01:39.855Z,22.07
2022-10-30T06:04:12.469Z,20.30
2022-10-30T06:06:47.744Z,26.00
2022-10-30T06:09:20.297Z,17.87
2022-10-30T06:11:54.152Z,17.83
2022-10-30T06:14:26.685Z,17.93
2022-10-30T06:16:59.328Z,19.50
2022-10-30T06:19:31.880Z,16.03
2022-10-30T06:22:04.598Z,23.50
2022-10-30T06:24:37.201Z,25.03
2022-10-30T06:27:11.227Z,20.67
2022-10-30T06:29:43.714Z,18.33
2022-10-30T06:32:16.443Z,17.67
2022-10-30T06:34:49.152Z,18.07
2022-10-30T06:37:21.767Z,21.20
2022-10-30T06:39:54.349Z,17.40
2022-10-30T06:42:31.034Z,18.27
2022-10-30T06:45:03.599Z,19.80
2022-10-30T06:47:36.283Z,18.03
2022-10-30T06:50:09.857Z,21.43
2022-10-30T06:52:42.444Z,22.20
2022-10-30T06:55:15.274Z,23.87
2022-10-30T06:57:53.986Z,20.00
2022-10-30T07:00:27.843Z,19.60
2022-10-30T07:03:04.537Z,18.27
2022-10-30T07:05:37.244Z,18.47
2022-10-30T07:08:15.241Z,18.57
2022-10-30T07:10:47.797Z,16.90
2022-10-30T07:13:22.006Z,16.07
2022-10-30T07:15:54.538Z,23.77
2022-10-30T07:18:27.080Z,22.17
2022-10-30T07:20:59.755Z,17.97
2022-10-30T07:23:32.418Z,19.33
2022-10-30T07:26:09.283Z,21.83
2022-10-30T07:28:43.143Z,18.77
2022-10-30T07:31:20.189Z,16.47
2022-10-30T07:34:01.979Z,19.93
2022-10-30T07:36:34.576Z,21.73
2022-10-30T07:39:07.210Z,18.13
2022-10-30T07:41:39.737Z,19.40
2022-10-30T07:44:13.709Z,17.83
2022-10-30T07:46:47.084Z,22.27
2022-10-30T07:49:19.676Z,19.37
2022-10-30T07:51:52.292Z,25.10
2022-10-30T07:54:24.887Z,17.07
2022-10-30T07:57:00.091Z,18.70
2022-10-30T07:59:34.151Z,19.37
2022-10-30T08:02:06.885Z,19.07
2022-10-30T08:04:39.646Z,17.63
2022-10-30T08:07:13.011Z,18.90
2022-10-30T08:09:45.701Z,17.70
2022-10-30T08:12:18.202Z,17.87
2022-10-30T08:14:59.721Z,20.60
2022-10-30T08:17:32.338Z,17.30
2022-10-30T08:20:05.174Z,22.17
2022-10-30T08:22:46.938Z,18.17
2022-10-30T08:25:23.123Z,19.77
2022-10-30T08:27:56.905Z,14.27
2022-10-30T08:30:34.328Z,16.87
2022-10-30T08:33:11.635Z,17.43
2022-10-30T08:35:50.723Z,16.80
2022-10-30T08:38:23.407Z,19.57
2022-10-30T08:40:55.956Z,17.13
2022-10-30T08:43:28.474Z,15.80
2022-10-30T08:46:02.972Z,23.07
2022-10-30T08:48:35.532Z,20.73
2022-10-30T08:51:08.228Z,19.20
2022-10-30T08:53:40.806Z,16.13
2022-10-30T08:56:13.519Z,18.20
2022-10-30T08:58:48.201Z,18.83
2022-10-30T09:01:22.224Z,14.40
2022-10-30T09:03:54.813Z,17.60
2022-10-30T09:06:27.552Z,19.23
2022-10-30T09:09:00.103Z,18.40
2022-10-30T09:11:33.371Z,15.00
2022-10-30T09:14:05.911Z,18.57
2022-10-30T09:16:39.922Z,16.00
2022-10-30T09:19:17.668Z,18.13
2022-10-30T09:21:51.226Z,13.67
2022-10-30T09:24:23.895Z,15.53
2022-10-30T09:26:56.913Z,14.50
2022-10-30T09:29:31.147Z,16.07
2022-10-30T09:32:08.662Z,15.37
2022-10-30T09:34:41.231Z,15.43
2022-10-30T09:37:14.563Z,14.30
2022-10-30T09:39:47.137Z,15.90
2022-10-30T09:42:34.087Z,19.23
2022-10-30T09:45:28.682Z,19.00
2022-10-30T09:48:15.655Z,13.53
2022-10-30T09:50:55.917Z,16.27
2022-10-30T09:53:34.778Z,15.70
2022-10-30T09:56:09.406Z,11.80
2022-10-30T09:58:49.255Z,12.00
2022-10-30T10:01:24.442Z,10.80
2022-10-30T10:04:02.135Z,16.93
2022-10-30T10:06:35.103Z,13.73
2022-10-30T10:09:09.260Z,12.07
2022-10-30T10:11:43.578Z,11.43
2022-10-30T10:14:17.753Z,11.80
2022-10-30T10:16:54.903Z,17.53
2022-10-30T10:19:34.236Z,11.03
2022-10-30T10:22:14.769Z,14.70
2022-10-30T10:24:47.696Z,12.47
2022-10-30T10:27:25.813Z,11.17
2022-10-30T10:30:04.177Z,8.63
2022-10-30T10:32:54.678Z,11.27
2022-10-30T10:35:42.067Z,12.13
2022-10-30T10:38:22.865Z,13.83
2022-10-30T10:41:00.459Z,16.40
2022-10-30T10:43:38.975Z,15.10
2022-10-30T10:46:21.410Z,13.10
2022-10-30T10:49:03.839Z,13.73
2022-10-30T10:51:38.727Z,14.43
2022-10-30T10:54:15.268Z,13.47
2022-10-30T10:56:49.396Z,10.23
2022-10-30T10:59:24.223Z,11.80
2022-10-30T11:01:59.473Z,9.93
2022-10-30T11:04:33.531Z,15.70
2022-10-30T11:07:16.586Z,14.67
2022-10-30T11:09:52.496Z,11.07
2022-10-30T11:12:30.915Z,9.37
2022-10-30T11:15:18.317Z,11.93
2022-10-30T11:17:55.145Z,12.47
2022-10-30T11:20:30.874Z,11.37
2022-10-30T11:23:03.851Z,13.63
2022-10-30T11:25:40.575Z,12.70
2022-10-30T11:28:25.483Z,10.47
2022-10-30T11:31:17.500Z,13.67
2022-10-30T11:33:50.414Z,13.03
2022-10-30T11:36:24.876Z,13.07
2022-10-30T11:38:59.271Z,13.07
2022-10-30T11:41:33.334Z,11.57
2022-10-30T11:44:06.739Z,10.17
2022-10-30T11:46:39.477Z,12.40
2022-10-30T11:49:24.657Z,8.33
2022-10-30T11:52:00.468Z,14.47
2022-10-30T11:54:35.976Z,11.30
2022-10-30T11:57:17.570Z,9.63
2022-10-30T11:59:51.893Z,12.50
2022-10-30T12:02:28.159Z,13.47
2022-10-30T12:05:02.070Z,15.57
2022-10-30T12:07:34.682Z,15.60
2022-10-30T12:10:24.319Z,12.30
2022-10-30T12:12:58.460Z,13.37
2022-10-30T12:15:35.930Z,14.53
2022-10-30T12:18:11.577Z,10.87
2022-10-30T12:20:47.175Z,12.87
2022-10-30T12:23:22.195Z,10.87
2022-10-30T12:25:55.863Z,10.93
2022-10-30T12:28:31.247Z,11.07
2022-10-30T12:31:08.949Z,10.43
2022-10-30T12:33:45.039Z,13.10
2022-10-30T12:36:19.731Z,15.63
2022-10-30T12:38:53.653Z,10.20
2022-10-30T12:41:31.146Z,14.13
2022-10-30T12:44:09.604Z,12.83
2022-10-30T12:46:47.034Z,12.07
2022-10-30T12:49:22.108Z,12.43
2022-10-30T12:51:58.742Z,11.33
2022-10-30T12:54:33.680Z,12.73
2022-10-30T12:57:09.224Z,13.50
2022-10-30T12:59:47.414Z,10.43
2022-10-30T13:02:24.692Z,11.00
2022-10-30T13:05:00.018Z,13.73
2022-10-30T13:07:36.834Z,12.57
2022-10-30T13:10:23.500Z,13.53
2022-10-30T13:12:58.954Z,12.57
2022-10-30T13:15:34.704Z,15.20
2022-10-30T13:18:13.600Z,9.87
2022-10-30T13:21:06.865Z,15.57
2022-10-30T13:23:44.389Z,16.37
2022-10-30T13:26:23.245Z,14.00
2022-10-30T13:28:58.889Z,12.57
2022-10-30T13:31:40.891Z,14.97
2022-10-30T13:34:23.068Z,12.80
2022-10-30T13:36:59.675Z,16.33
2022-10-30T13:39:38.944Z,11.83
2022-10-30T13:42:17.825Z,13.80
2022-10-30T13:44:58.408Z,13.03
2022-10-30T13:47:35.473Z,13.00
2022-10-30T13:50:22.272Z,12.73
2022-10-30T13:52:56.697Z,11.20
2022-10-30T13:55:30.624Z,9.17
2022-10-30T13:58:05.905Z,26.90
2022-10-30T14:00:50.559Z,15.57
2022-10-30T14:03:31.376Z,9.10
2022-10-30T14:06:08.805Z,11.80
2022-10-30T14:08:43.879Z,13.87
2022-10-30T14:11:16.518Z,25.60
2022-10-30T14:13:54.602Z,12.80
2022-10-30T14:16:35.091Z,12.20
2022-10-30T14:19:09.373Z,15.37
2022-10-30T14:21:43.253Z,22.60
2022-10-30T14:24:19.884Z,14.00
2022-10-30T14:26:57.063Z,10.77
2022-10-30T14:29:38.927Z,18.83
2022-10-30T14:32:36.494Z,17.33
2022-10-30T14:35:30.424Z,11.87
2022-10-30T14:38:22.761Z,10.20
2022-10-30T14:41:16.086Z,16.60
2022-10-30T14:43:57.703Z,21.80
2022-10-30T14:46:33.289Z,26.70
2022-10-30T14:49:14.909Z,19.67
2022-10-30T14:51:52.255Z,15.97
2022-10-30T14:54:27.542Z,21.47
2022-10-30T14:57:00.213Z,14.10
2022-10-30T14:59:35.367Z,14.20
2022-10-30T15:02:29.232Z,24.83
2022-10-30T15:05:13.569Z,20.30
2022-10-30T15:07:51.211Z,21.73
2022-10-30T15:10:28.227Z,18.37
2022-10-30T15:13:07.789Z,14.70
2022-10-30T15:15:42.040Z,19.17
2022-10-30T15:18:18.582Z,32.40
2022-10-30T15:20:51.800Z,20.70
2022-10-30T15:23:26.047Z,21.47
2022-10-30T15:26:06.390Z,17.27
2022-10-30T15:28:44.519Z,15.53
2022-10-30T15:31:24.136Z,18.17
2022-10-30T15:33:57.868Z,24.00
2022-10-30T15:36:39.160Z,20.03
2022-10-30T15:39:12.731Z,17.17
2022-10-30T15:41:47.274Z,19.83
2022-10-30T15:44:22.204Z,15.70
2022-10-30T15:46:58.958Z,17.60
2022-10-30T15:49:35.395Z,18.33
2022-10-30T15:52:13.795Z,14.90
2022-10-30T15:54:47.859Z,17.67
2022-10-30T16:00:22.565Z,33.30
2022-10-30T16:03:03.577Z,25.40
2022-10-30T16:05:36.308Z,24.30
2022-10-30T16:08:13.303Z,42.57
2022-10-30T16:10:46.413Z,21.50
2022-10-30T16:13:19.958Z,20.33
2022-10-30T16:15:52.514Z,27.47
2022-10-30T16:18:27.669Z,22.33
2022-10-30T16:21:03.288Z,27.27
2022-10-30T16:23:38.459Z,34.40
2022-10-30T16:26:23.427Z,133.50
2022-10-30T16:28:56.154Z,29.20
2022-10-30T16:31:30.659Z,32.17
2022-10-30T16:34:05.921Z,35.10
2022-10-30T16:36:38.674Z,48.43
2022-10-30T16:39:16.718Z,23.77
2022-10-30T16:41:49.814Z,33.50
2022-10-30T16:44:27.240Z,25.77
2022-10-30T16:47:02.226Z,27.50
2022-10-30T16:49:37.860Z,30.27
2022-10-30T16:52:14.719Z,28.60
2022-10-30T16:54:48.724Z,25.90
2022-10-30T16:57:23.948Z,28.57
2022-10-30T16:59:57.069Z,24.73
2022-10-30T17:02:32.004Z,25.37
2022-10-30T17:05:13.255Z,21.67
2022-10-30T17:07:54.527Z,22.37
2022-10-30T17:10:32.574Z,27.20
2022-10-30T17:13:35.149Z,23.63
2022-10-30T17:16:21.826Z,24.97
2022-10-30T17:18:57.376Z,24.77
2022-10-30T17:21:38.070Z,27.20
2022-10-30T17:24:19.095Z,21.17
2022-10-30T17:26:55.377Z,26.37
2022-10-30T17:29:54.679Z,22.93
2022-10-30T17:32:27.790Z,29.93
2022-10-30T17:35:02.557Z,27.43
2022-10-30T17:37:36.503Z,25.67
2022-10-30T17:40:09.539Z,27.30
2022-10-30T17:42:42.432Z,28.77
2022-10-30T17:45:15.419Z,28.83
2022-10-30T17:47:47.945Z,33.20
2022-10-30T17:50:20.636Z,30.47
2022-10-30T17:52:57.871Z,32.20
2022-10-30T17:55:32.996Z,31.30
2022-10-30T17:58:05.625Z,34.37
2022-10-30T18:00:38.239Z,37.10
2022-10-30T18:03:11.008Z,29.83
2022-10-30T18:05:46.527Z,29.20
2022-10-30T18:08:20.479Z,30.47
2022-10-30T18:10:53.144Z,32.40
2022-10-30T18:13:28.737Z,33.10
2022-10-30T18:16:01.343Z,31.77
2022-10-30T18:18:33.920Z,35.83
2022-10-30T18:21:06.730Z,31.37
2022-10-30T18:23:56.181Z,28.60
2022-10-30T18:26:28.835Z,30.57
2022-10-30T18:29:01.536Z,27.47
2022-10-30T18:31:34.197Z,29.83
2022-10-30T18:34:11.091Z,29.73
2022-10-30T18:36:44.021Z,29.13
2022-10-30T18:39:19.691Z,32.47
2022-10-30T18:41:53.691Z,31.53
2022-10-30T18:44:26.291Z,35.77
2022-10-30T18:47:02.992Z,33.70
2022-10-30T18:49:35.970Z,35.23
2022-10-30T18:52:09.620Z,35.30
2022-10-30T18:54:43.486Z,33.20
2022-10-30T18:57:19.630Z,33.50
2022-10-30T18:59:52.947Z,32.40
2022-10-30T19:02:26.931Z,33.83
2022-10-30T19:04:59.728Z,30.73
2022-10-30T19:07:32.425Z,33.37
2022-10-30T19:10:07.332Z,31.93
2022-10-30T19:12:51.510Z,33.93
2022-10-30T19:15:34.707Z,37.13
2022-10-30T19:18:07.547Z,39.17
2022-10-30T19:21:02.787Z,32.60
2022-10-30T19:23:32.669Z,38.23
2022-10-30T19:26:06.975Z,38.47
2022-10-30T19:28:40.342Z,41.00
2022-10-30T19:31:14.423Z,36.77
2022-10-30T19:33:51.435Z,32.43
2022-10-30T19:36:32.822Z,35.67
2022-10-30T19:39:09.240Z,36.80
2022-10-30T19:41:43.330Z,39.33
2022-10-30T19:44:16.994Z,41.63
2022-10-30T19:46:49.683Z,35.70
2022-10-30T19:49:22.731Z,39.60
2022-10-30T19:51:55.363Z,33.53
2022-10-30T19:54:30.214Z,39.27
2022-10-30T19:57:06.380Z,34.07
2022-10-30T19:59:39.136Z,38.13
2022-10-30T20:02:16.723Z,36.23
2022-10-30T20:04:52.024Z,37.70
2022-10-30T20:07:24.747Z,37.30
2022-10-30T20:09:57.391Z,41.67
2022-10-30T20:15:23.478Z,38.90
2022-10-30T20:17:56.580Z,39.33
2022-10-30T20:20:30.867Z,33.97
2022-10-30T20:23:03.579Z,38.00
2022-10-30T20:25:38.458Z,38.97
2022-10-30T20:28:19.260Z,33.83
2022-10-30T20:30:52.421Z,35.93
2022-10-30T20:33:25.491Z,35.13
2022-10-30T20:35:58.033Z,35.37
2022-10-30T20:38:32.786Z,36.50
2022-10-30T20:41:19.440Z,40.73
2022-10-30T20:43:53.532Z,37.30
2022-10-30T20:46:26.179Z,33.80
2022-10-30T20:49:01.301Z,35.80
2022-10-30T20:51:40.026Z,40.07
2022-10-30T20:54:12.574Z,35.70
2022-10-30T20:56:45.140Z,36.90
2022-10-30T20:59:19.446Z,38.37
2022-10-30T21:01:55.243Z,40.33
2022-10-30T21:04:28.031Z,41.70
2022-10-30T21:07:00.723Z,36.77
2022-10-30T21:09:35.650Z,34.13
2022-10-30T21:12:08.785Z,37.83
2022-10-30T21:14:43.293Z,37.50
2022-10-30T21:17:15.945Z,42.60
2022-10-30T21:19:48.675Z,36.13
2022-10-30T21:22:21.428Z,38.63
2022-10-30T21:24:54.039Z,36.77
2022-10-30T21:27:26.583Z,39.60
2022-10-30T21:30:00.607Z,42.87
2022-10-30T21:32:34.338Z,41.57
2022-10-30T21:35:07.334Z,40.73
2022-10-30T21:37:40.038Z,36.60
2022-10-30T21:40:13.461Z,43.17
2022-10-30T21:42:48.118Z,43.97
2022-10-30T21:45:22.143Z,40.47
2022-10-30T21:47:54.791Z,43.87
2022-10-30T21:50:27.438Z,41.47
2022-10-30T21:53:00.875Z,43.53
2022-10-30T21:55:33.684Z,50.93
2022-10-30T21:58:06.507Z,44.37
2022-10-30T22:00:40.637Z,52.07
2022-10-30T22:03:13.240Z,45.97
2022-10-30T22:05:45.750Z,39.63
2022-10-30T22:08:18.494Z,41.67
2022-10-30T22:10:53.800Z,43.67
2022-10-30T22:13:26.394Z,40.87
2022-10-30T22:16:00.609Z,42.93
2022-10-30T22:18:33.312Z,43.60
2022-10-30T22:21:07.135Z,41.67
2022-10-30T22:23:40.159Z,42.87
2022-10-30T22:26:13.699Z,40.77
2022-10-30T22:28:46.639Z,41.53
2022-10-30T22:31:21.098Z,41.53
2022-10-30T22:33:53.883Z,41.70
2022-10-30T22:36:27.179Z,38.30
2022-10-30T22:39:07.383Z,42.17
2022-10-30T22:41:40.306Z,36.50
2022-10-30T22:44:17.297Z,39.87
2022-10-30T22:46:51.240Z,40.80
2022-10-30T22:49:23.856Z,41.50
2022-10-30T22:51:56.520Z,46.47
2022-10-30T22:54:29.043Z,39.47
2022-10-30T22:57:01.634Z,38.93
2022-10-30T22:59:34.164Z,39.40
2022-10-30T23:02:08.270Z,44.27
2022-10-30T23:04:40.881Z,40.57
2022-10-30T23:07:13.901Z,40.30
2022-10-30T23:09:46.462Z,40.93
2022-10-30T23:12:19.068Z,39.57
2022-10-30T23:14:54.124Z,41.30
2022-10-30T23:17:28.033Z,45.77
2022-10-30T23:20:00.618Z,40.63
2022-10-30T23:22:33.186Z,44.27
2022-10-30T23:25:06.043Z,42.30
2022-10-30T23:27:38.674Z,38.97
2022-10-30T23:30:14.194Z,43.20
2022-10-30T23:32:49.677Z,42.90
2022-10-30T23:35:24.563Z,43.33
2022-10-30T23:37:59.075Z,41.40
2022-10-30T23:40:31.698Z,41.17
2022-10-30T23:43:04.792Z,45.27
2022-10-30T23:45:37.572Z,42.77
2022-10-30T23:48:11.500Z,40.27
2022-10-30T23:50:46.449Z,41.03
2022-10-30T23:53:19.237Z,42.37
2022-10-30T23:55:52.163Z,40.73
2022-10-30T23:58:24.731Z,44.40
